Terminal Aerodrome Forecast
Issued by NWS Buffalo, NY

Home | Current Version | Previous Version | Text Only | Print | Product List | Glossary On
Versions: 1 2 3 4 5 6 7 8 9 10 11 12 13 14 15 16 17 18 19 20 21 22 23 24 25 26
000
FTUS41 KBUF 261700
TAFART
TAF
KART 261727Z 2618/2718 25007KT P6SM OVC040
     FM270000 00000KT P6SM OVC040
     FM270600 VRB03KT P6SM OVC025
     FM270900 35004KT P6SM VCSH OVC007
     FM271300 31006KT P6SM VCSH OVC012
     FM271700 31008KT P6SM VCSH OVC030=

USA.gov is the U.S. government's official web portal to all federal, state and local government web resources and services.